Time;durP1;ratioP1;P1;durP2;ratioP2;P2;SDS_P1;SDS_P2;PMS_P1;PMS_P2;Temp;Humidity;BMP_temperature;BMP_pressure;BME280_temperature;BME280_humidity;BME280_pressure;Samples;Min_cycle;Max_cycle;Signal;HPM_P1;HPM_P2
2023/05/08 00:01:57;;;;;;;6.57;4.77;;;;;;;4.36;nan;102045.81;5032645;28;20057;-83
2023/05/08 00:04:24;;;;;;;4.37;3.47;;;;;;;4.32;nan;102046.59;5017665;28;20037;-86
2023/05/08 00:06:51;;;;;;;6.13;4.10;;;;;;;4.37;nan;102047.63;5017164;28;20051;-86
2023/05/08 00:09:19;;;;;;;4.23;3.77;;;;;;;4.33;nan;102042.25;5028405;28;20490;-85
2023/05/08 00:11:46;;;;;;;4.37;3.77;;;;;;;4.26;nan;102046.41;5027722;28;20399;-86
2023/05/08 00:14:13;;;;;;;5.93;3.73;;;;;;;4.21;nan;102042.81;5040251;28;20036;-86
2023/05/08 00:16:40;;;;;;;5.10;3.87;;;;;;;4.20;nan;102041.00;5028038;28;20303;-88
2023/05/08 00:19:07;;;;;;;6.87;4.40;;;;;;;4.13;nan;102042.59;5027797;28;20045;-89
2023/05/08 00:21:34;;;;;;;4.00;3.53;;;;;;;4.15;nan;102042.63;5019773;28;20047;-86
2023/05/08 00:24:01;;;;;;;6.63;4.03;;;;;;;4.17;nan;102041.81;5016471;28;20044;-88
2023/05/08 00:26:28;;;;;;;5.07;3.50;;;;;;;3.95;nan;102036.81;5042401;28;20071;-85
2023/05/08 00:28:55;;;;;;;5.97;3.97;;;;;;;3.98;nan;102042.16;5015660;28;20048;-84
2023/05/08 00:31:22;;;;;;;6.00;3.90;;;;;;;3.89;nan;102042.78;5017455;28;20044;-85
2023/05/08 00:33:49;;;;;;;5.10;4.50;;;;;;;3.98;nan;102042.16;5046674;28;20051;-85
2023/05/08 00:36:16;;;;;;;5.53;4.23;;;;;;;3.89;nan;102037.56;5030980;28;20034;-86
2023/05/08 00:38:43;;;;;;;5.43;4.07;;;;;;;3.87;nan;102039.25;5021266;28;20037;-88
2023/05/08 00:41:10;;;;;;;5.60;4.00;;;;;;;3.79;nan;102045.97;5015352;28;20052;-87
2023/05/08 00:43:38;;;;;;;5.17;3.90;;;;;;;3.78;nan;102038.94;5030960;28;20697;-84
2023/05/08 00:46:05;;;;;;;5.50;3.90;;;;;;;3.78;nan;102040.69;5050239;28;20037;-84
2023/05/08 00:48:33;;;;;;;6.10;3.70;;;;;;;3.76;nan;102040.63;5034625;28;20112;-85
2023/05/08 00:51:03;;;;;;;5.07;4.10;;;;;;;3.68;nan;102035.19;5025043;28;20045;-85
2023/05/08 00:53:32;;;;;;;4.90;3.80;;;;;;;3.58;nan;102037.50;5022857;28;20041;-86
2023/05/08 00:55:59;;;;;;;5.83;4.17;;;;;;;3.46;nan;102040.63;5034703;28;20055;-85
2023/05/08 00:58:27;;;;;;;5.33;4.27;;;;;;;3.42;nan;102036.13;5010329;28;20045;-85
2023/05/08 01:00:55;;;;;;;6.77;4.70;;;;;;;3.28;nan;102043.56;5024957;28;20044;-85
2023/05/08 01:03:23;;;;;;;6.63;4.40;;;;;;;3.16;nan;102048.38;5021397;28;20025;-85
2023/05/08 01:05:50;;;;;;;5.33;4.43;;;;;;;3.11;nan;102052.56;5032417;28;20036;-85
2023/05/08 01:08:17;;;;;;;5.73;4.40;;;;;;;2.94;nan;102045.91;5026898;28;20396;-87
2023/05/08 01:11:15;;;;;;;5.27;4.40;;;;;;;2.91;nan;102062.34;5031169;28;20043;-88
2023/05/08 01:14:10;;;;;;;5.87;4.80;;;;;;;2.88;nan;102057.06;5024374;28;20063;-83
2023/05/08 01:17:05;;;;;;;5.95;4.40;;;;;;;2.86;nan;102063.94;5026786;28;20499;-84
2023/05/08 01:20:09;;;;;;;6.73;4.00;;;;;;;2.98;nan;102064.34;5014436;28;20414;-84
2023/05/08 01:22:56;;;;;;;5.10;4.20;;;;;;;2.91;nan;102067.59;5042189;28;20047;-83
2023/05/08 01:25:56;;;;;;;5.90;4.33;;;;;;;2.97;nan;102070.41;5030710;28;20041;-84
2023/05/08 01:28:31;;;;;;;5.30;4.60;;;;;;;3.01;nan;102064.44;5048875;28;20037;-86
2023/05/08 01:31:07;;;;;;;6.20;5.03;;;;;;;2.96;nan;102070.34;5034981;28;20055;-83
2023/05/08 01:33:41;;;;;;;5.20;4.70;;;;;;;2.91;nan;102075.41;5035398;28;20047;-83
2023/05/08 01:36:08;;;;;;;8.18;5.53;;;;;;;2.89;nan;102076.22;5009273;28;20044;-83
2023/05/08 01:38:43;;;;;;;6.67;4.63;;;;;;;2.91;nan;102067.59;5033793;28;20506;-86
2023/05/08 01:41:15;;;;;;;5.33;4.47;;;;;;;2.74;nan;102076.56;5013993;28;20045;-83
2023/05/08 01:44:11;;;;;;;5.23;4.23;;;;;;;2.77;nan;102077.53;5010334;28;20033;-84
2023/05/08 01:46:38;;;;;;;6.07;4.07;;;;;;;2.72;nan;102076.53;4997682;28;20071;-82
2023/05/08 01:49:17;;;;;;;8.03;4.73;;;;;;;2.62;nan;102073.56;4981598;28;20426;-86
2023/05/08 01:51:46;;;;;;;5.57;4.43;;;;;;;2.66;nan;102071.09;4998183;28;20045;-84
2023/05/08 01:54:15;;;;;;;6.63;4.40;;;;;;;2.52;nan;102075.84;4989758;28;20035;-83
2023/05/08 01:56:43;;;;;;;5.70;4.87;;;;;;;2.52;nan;102074.94;4997853;28;20398;-83
2023/05/08 01:59:13;;;;;;;6.13;4.90;;;;;;;2.50;nan;102076.59;4998234;28;20075;-83
2023/05/08 02:01:41;;;;;;;6.00;4.53;;;;;;;2.47;nan;102084.34;5001324;28;20063;-83
2023/05/08 02:04:10;;;;;;;5.43;4.47;;;;;;;2.48;nan;102078.28;5033816;28;20119;-83
2023/05/08 02:06:37;;;;;;;5.93;4.20;;;;;;;2.38;nan;102079.69;5014252;28;20030;-83
2023/05/08 02:09:07;;;;;;;7.23;4.43;;;;;;;2.38;nan;102090.13;4998052;28;20056;-83
2023/05/08 02:11:36;;;;;;;5.37;4.40;;;;;;;2.35;nan;102078.66;4998474;28;20045;-84
2023/05/08 02:14:04;;;;;;;6.30;5.00;;;;;;;2.32;nan;102081.19;5014027;28;20033;-82
2023/05/08 02:16:32;;;;;;;5.77;4.60;;;;;;;2.30;nan;102085.47;5018568;28;20045;-82
2023/05/08 02:19:00;;;;;;;7.37;5.10;;;;;;;2.40;nan;102088.44;5012004;28;20052;-82
2023/05/08 02:21:28;;;;;;;6.00;4.93;;;;;;;2.30;nan;102085.47;5011192;28;20044;-83
2023/05/08 02:23:56;;;;;;;7.30;5.03;;;;;;;2.19;nan;102091.19;5014336;28;20033;-83
2023/05/08 02:26:24;;;;;;;5.30;4.80;;;;;;;2.16;nan;102088.44;5027737;28;20051;-84
2023/05/08 02:28:52;;;;;;;6.43;4.80;;;;;;;2.23;nan;102085.22;5012714;28;20392;-87
2023/05/08 02:31:19;;;;;;;5.03;4.37;;;;;;;2.14;nan;102091.84;5012947;28;20045;-85
2023/05/08 02:33:47;;;;;;;6.93;4.90;;;;;;;2.12;nan;102080.47;5011751;28;20044;-86
2023/05/08 02:36:15;;;;;;;5.80;4.73;;;;;;;2.09;nan;102086.44;5044210;28;20379;-85
2023/05/08 02:38:48;;;;;;;6.17;4.60;;;;;;;1.96;nan;102084.22;5034202;28;20041;-84
2023/05/08 02:41:17;;;;;;;6.57;5.10;;;;;;;1.99;nan;102092.16;5050879;28;20037;-83
2023/05/08 02:43:44;;;;;;;6.53;4.87;;;;;;;2.04;nan;102084.50;5029918;28;20421;-87
2023/05/08 02:46:15;;;;;;;8.43;6.70;;;;;;;2.02;nan;102088.75;5047000;28;20038;-83
2023/05/08 02:48:56;;;;;;;6.67;5.20;;;;;;;2.04;nan;102076.69;5023795;28;20051;-86
2023/05/08 02:51:38;;;;;;;8.27;5.37;;;;;;;1.97;nan;102080.78;5030893;28;20041;-84
2023/05/08 02:54:24;;;;;;;7.13;5.47;;;;;;;2.08;nan;102081.16;5010063;28;20033;-84
2023/05/08 02:56:58;;;;;;;6.00;4.50;;;;;;;2.08;nan;102076.84;5020861;28;20578;-86
2023/05/08 02:59:28;;;;;;;;;;;;;;;1.91;nan;102078.81;5026469;28;20050;-84
2023/05/08 03:02:20;;;;;;;7.20;4.87;;;;;;;2.05;nan;102074.13;5015273;28;19928;-88
2023/05/08 03:04:50;;;;;;;6.83;5.00;;;;;;;1.90;nan;102083.97;5031272;28;20037;-87
2023/05/08 03:07:19;;;;;;;7.37;5.40;;;;;;;1.87;nan;102086.50;5038987;28;20037;-85
2023/05/08 03:09:51;;;;;;;7.23;5.33;;;;;;;1.85;nan;102086.44;4999180;28;20037;-84
2023/05/08 03:12:22;;;;;;;7.97;5.80;;;;;;;1.86;nan;102082.09;5015919;28;20051;-85
2023/05/08 03:15:12;;;;;;;8.27;5.37;;;;;;;1.87;nan;102082.16;5023352;28;20043;-84
2023/05/08 03:17:42;;;;;;;6.53;4.90;;;;;;;1.92;nan;102085.81;5035098;28;20042;-86
2023/05/08 03:20:11;;;;;;;6.87;5.00;;;;;;;1.85;nan;102085.50;5022456;28;20044;-90
2023/05/08 03:22:38;;;;;;;6.73;5.20;;;;;;;1.87;nan;102079.56;5002418;28;20502;-83
2023/05/08 03:25:08;;;;;;;8.67;5.27;;;;;;;1.89;nan;102079.59;5017390;28;20037;-86
2023/05/08 03:27:36;;;;;;;6.40;5.00;;;;;;;1.91;nan;102083.16;5029925;28;20038;-89
2023/05/08 03:30:05;;;;;;;9.77;5.47;;;;;;;1.90;nan;102083.97;5021109;28;20055;-87
2023/05/08 03:32:33;;;;;;;8.10;5.27;;;;;;;1.92;nan;102080.59;5006181;28;20037;-86
2023/05/08 03:35:01;;;;;;;6.47;5.40;;;;;;;1.92;nan;102078.00;5005576;28;20044;-86
2023/05/08 03:37:28;;;;;;;7.47;5.13;;;;;;;1.89;nan;102083.09;5005620;28;20498;-84
2023/05/08 03:39:55;;;;;;;8.20;5.40;;;;;;;1.83;nan;102085.47;5017583;28;20044;-90
2023/05/08 03:42:23;;;;;;;8.13;5.57;;;;;;;1.79;nan;102088.81;5025568;28;20033;-84
2023/05/08 03:44:51;;;;;;;7.73;6.23;;;;;;;1.78;nan;102089.63;5033073;28;20040;-83
2023/05/08 03:47:21;;;;;;;6.67;5.37;;;;;;;1.83;nan;102087.19;5021778;28;20033;-85
2023/05/08 03:49:50;;;;;;;8.27;5.60;;;;;;;1.85;nan;102082.91;5030716;28;20045;-84
2023/05/08 03:52:17;;;;;;;7.07;5.10;;;;;;;2.01;nan;102086.97;5032152;28;20048;-83
2023/05/08 03:54:44;;;;;;;8.47;5.33;;;;;;;1.87;nan;102087.38;5016710;28;20487;-86
2023/05/08 03:57:11;;;;;;;7.27;5.60;;;;;;;1.94;nan;102084.19;5020463;28;20043;-82
2023/05/08 03:59:50;;;;;;;8.00;5.40;;;;;;;1.81;nan;102075.81;5037176;28;20033;-84
2023/05/08 04:02:26;;;;;;;6.73;4.90;;;;;;;1.83;nan;102088.06;5047002;28;20040;-85
2023/05/08 04:05:00;;;;;;;8.97;5.80;;;;;;;1.85;nan;102085.50;5031059;28;20037;-85
2023/05/08 04:07:31;;;;;;;7.35;5.65;;;;;;;1.94;nan;102092.00;5029673;28;20513;-84
2023/05/08 04:10:06;;;;;;;6.73;5.23;;;;;;;1.95;nan;102091.16;5024099;28;20494;-86
2023/05/08 04:12:48;;;;;;;6.77;5.30;;;;;;;2.06;nan;102093.28;5045610;28;20037;-84
2023/05/08 04:15:19;;;;;;;9.63;5.47;;;;;;;2.05;nan;102099.31;5023546;28;20292;-84
2023/05/08 04:17:55;;;;;;;7.83;5.93;;;;;;;2.10;nan;102098.66;5037664;28;20048;-86
2023/05/08 04:20:25;;;;;;;8.73;6.40;;;;;;;2.14;nan;102095.31;5034123;28;20498;-84
2023/05/08 04:22:53;;;;;;;7.90;5.87;;;;;;;2.32;nan;102102.03;5016927;28;20379;-83
2023/05/08 04:25:21;;;;;;;9.10;6.17;;;;;;;2.40;nan;102105.81;5018572;28;20033;-84
2023/05/08 04:27:50;;;;;;;7.93;5.97;;;;;;;2.50;nan;102100.09;5001049;28;20041;-83
2023/05/08 04:30:17;;;;;;;7.80;6.00;;;;;;;2.47;nan;102105.19;5021452;28;20045;-82
2023/05/08 04:32:44;;;;;;;7.93;5.73;;;;;;;2.55;nan;102103.75;5036269;28;20033;-86
2023/05/08 04:35:12;;;;;;;10.03;6.17;;;;;;;2.59;nan;102113.44;5032195;28;20037;-86
2023/05/08 04:37:42;;;;;;;9.93;6.60;;;;;;;2.72;nan;102107.84;5026944;28;20069;-84
2023/05/08 04:40:09;;;;;;;12.30;7.93;;;;;;;2.81;nan;102108.16;5016640;28;20052;-82
2023/05/08 04:42:38;;;;;;;10.03;6.97;;;;;;;2.97;nan;102111.28;5016381;28;20388;-89
2023/05/08 04:45:05;;;;;;;9.40;7.03;;;;;;;3.07;nan;102100.31;5051809;28;20041;-85
2023/05/08 04:47:32;;;;;;;9.20;6.17;;;;;;;3.00;nan;102109.66;5033987;28;20049;-86
2023/05/08 04:50:00;;;;;;;7.93;6.20;;;;;;;3.06;nan;102114.19;5027176;28;20045;-82
2023/05/08 04:52:28;;;;;;;9.47;6.80;;;;;;;3.27;nan;102122.72;5031944;28;20124;-87
2023/05/08 04:54:55;;;;;;;11.33;7.37;;;;;;;3.36;nan;102124.75;5020615;28;20455;-83
2023/05/08 04:57:22;;;;;;;8.40;6.40;;;;;;;3.34;nan;102123.81;5032901;28;20037;-85
2023/05/08 04:59:49;;;;;;;8.03;6.53;;;;;;;3.43;nan;102126.72;5040707;28;20517;-83
2023/05/08 05:02:17;;;;;;;12.07;7.33;;;;;;;3.87;nan;102128.13;5018922;28;20048;-84
2023/05/08 05:04:44;;;;;;;8.93;6.10;;;;;;;3.94;nan;102129.19;5035196;28;20410;-82
2023/05/08 05:07:13;;;;;;;9.47;6.10;;;;;;;4.05;nan;102127.78;5052994;28;20037;-84
2023/05/08 05:09:44;;;;;;;10.30;7.37;;;;;;;4.25;nan;102128.38;5035039;28;20048;-82
2023/05/08 05:12:11;;;;;;;12.33;7.63;;;;;;;4.43;nan;102123.66;5016522;28;20049;-84
2023/05/08 05:14:38;;;;;;;9.10;7.03;;;;;;;4.38;nan;102129.63;5022707;28;20037;-82
2023/05/08 05:17:05;;;;;;;8.93;6.47;;;;;;;4.49;nan;102136.91;5027218;28;20037;-86
2023/05/08 05:19:32;;;;;;;8.53;6.80;;;;;;;4.73;nan;102141.94;5024200;28;20053;-83
2023/05/08 05:21:59;;;;;;;11.23;8.07;;;;;;;4.83;nan;102134.31;5032914;28;20037;-85
2023/05/08 05:24:26;;;;;;;8.30;6.20;;;;;;;4.94;nan;102135.50;5026948;28;20060;-84
2023/05/08 05:26:53;;;;;;;7.93;5.93;;;;;;;5.11;nan;102143.78;5033737;28;20033;-85
2023/05/08 05:29:20;;;;;;;9.87;6.40;;;;;;;5.32;nan;102137.34;5026069;28;20049;-84
2023/05/08 05:31:47;;;;;;;11.27;7.00;;;;;;;5.35;nan;102144.41;5018100;28;20042;-85
2023/05/08 05:34:14;;;;;;;8.67;5.87;;;;;;;5.72;nan;102146.19;5051100;28;20037;-86
2023/05/08 05:36:41;;;;;;;7.07;5.10;;;;;;;6.33;nan;102144.03;5045946;28;20038;-86
2023/05/08 05:39:09;;;;;;;7.53;5.07;;;;;;;6.72;nan;102144.81;5035854;28;20044;-85
2023/05/08 05:41:36;;;;;;;7.70;5.83;;;;;;;6.88;nan;102139.84;5022046;28;20454;-83
2023/05/08 05:44:03;;;;;;;6.83;5.60;;;;;;;6.92;nan;102141.69;5026125;28;20124;-84
2023/05/08 05:46:33;;;;;;;6.80;5.73;;;;;;;6.80;nan;102136.19;5039356;28;20723;-85
2023/05/08 05:49:00;;;;;;;7.30;5.93;;;;;;;6.99;nan;102138.31;5020898;28;20055;-84
2023/05/08 05:51:28;;;;;;;7.63;5.07;;;;;;;7.84;nan;102136.19;5037154;28;20048;-87
2023/05/08 05:53:56;;;;;;;6.50;4.77;;;;;;;8.50;nan;102137.94;5033212;28;20041;-84
2023/05/08 05:56:23;;;;;;;7.30;5.63;;;;;;;8.73;nan;102144.34;5041959;28;20045;-84
2023/05/08 05:58:50;;;;;;;5.10;4.50;;;;;;;9.37;nan;102136.16;5034470;28;20088;-86
2023/05/08 06:01:17;;;;;;;5.13;4.03;;;;;;;10.54;nan;102132.47;5029061;28;20033;-83
2023/05/08 06:03:44;;;;;;;4.78;3.60;;;;;;;12.57;nan;102142.91;5030088;28;20033;-84
2023/05/08 06:06:12;;;;;;;5.97;3.65;;;;;;;14.13;nan;102136.34;5042657;28;20406;-85
2023/05/08 06:08:39;;;;;;;6.60;4.38;;;;;;;14.60;nan;102128.66;5007931;28;20055;-83
2023/05/08 06:11:06;;;;;;;4.88;4.07;;;;;;;14.71;nan;102135.59;5030773;28;20033;-83
2023/05/08 06:13:34;;;;;;;6.20;4.28;;;;;;;15.78;nan;102129.44;5022796;28;20043;-87
2023/05/08 06:16:02;;;;;;;4.68;3.53;;;;;;;15.16;nan;102136.72;5034939;28;20034;-81
2023/05/08 06:18:32;;;;;;;4.85;3.33;;;;;;;15.99;nan;102137.03;5022549;28;20576;-81
2023/05/08 06:21:00;;;;;;;4.30;3.47;;;;;;;16.31;nan;102132.81;5051936;28;20581;-83
2023/05/08 06:23:27;;;;;;;5.35;3.58;;;;;;;15.68;nan;102143.84;5031772;28;20558;-82
2023/05/08 06:25:54;;;;;;;5.70;3.28;;;;;;;14.57;nan;102134.03;5026214;28;20637;-87
2023/05/08 06:28:23;;;;;;;4.90;3.75;;;;;;;14.01;nan;102138.22;5052222;28;20540;-83
2023/05/08 06:30:51;;;;;;;4.50;3.92;;;;;;;13.86;nan;102132.19;5032030;28;20109;-86
2023/05/08 06:33:18;;;;;;;6.18;4.28;;;;;;;14.27;nan;102139.69;5044832;28;20100;-83
2023/05/08 06:35:48;;;;;;;4.80;3.60;;;;;;;14.05;nan;102131.09;5059832;28;20029;-89
2023/05/08 06:38:15;;;;;;;3.88;3.20;;;;;;;13.22;nan;102133.66;5033871;28;20033;-83
2023/05/08 06:40:43;;;;;;;4.20;3.25;;;;;;;13.39;nan;102139.72;5054638;28;20108;-85
2023/05/08 06:43:11;;;;;;;4.97;3.42;;;;;;;13.42;nan;102139.69;5047949;28;20097;-85
2023/05/08 06:45:39;;;;;;;3.92;3.03;;;;;;;13.24;nan;102134.53;5054380;28;20657;-87
2023/05/08 06:48:06;;;;;;;5.43;3.30;;;;;;;13.48;nan;102136.09;5014707;28;20059;-86
2023/05/08 06:50:37;;;;;;;3.55;2.95;;;;;;;13.35;nan;102132.66;5032849;28;20096;-87
2023/05/08 06:53:04;;;;;;;4.20;3.15;;;;;;;13.64;nan;102131.53;5023852;28;20105;-86
2023/05/08 06:55:35;;;;;;;3.25;2.95;;;;;;;13.72;nan;102127.91;5025937;28;20108;-87
2023/05/08 06:58:02;;;;;;;3.30;2.97;;;;;;;13.82;nan;102141.09;5053694;28;20132;-84
2023/05/08 07:00:29;;;;;;;4.88;3.25;;;;;;;13.97;nan;102136.50;5013213;28;20120;-86
2023/05/08 07:02:57;;;;;;;6.40;3.63;;;;;;;14.08;nan;102137.25;5036944;28;20120;-88
2023/05/08 07:05:25;;;;;;;4.53;3.10;;;;;;;14.35;nan;102137.81;5027007;28;20108;-86
2023/05/08 07:07:53;;;;;;;4.55;2.78;;;;;;;13.26;nan;102142.47;5030879;28;20105;-86
2023/05/08 07:10:21;;;;;;;5.47;2.70;;;;;;;13.74;nan;102135.84;5017350;28;20731;-85
2023/05/08 07:12:49;;;;;;;3.97;2.60;;;;;;;13.90;nan;102145.44;5018622;28;20124;-87
2023/05/08 07:15:16;;;;;;;3.80;2.97;;;;;;;14.06;nan;102136.41;5017147;28;20552;-87
2023/05/08 07:17:52;;;;;;;5.00;3.00;;;;;;;13.92;nan;102143.63;5043620;28;20097;-83
2023/05/08 07:20:20;;;;;;;3.90;2.53;;;;;;;14.12;nan;102138.09;5050290;28;20041;-86
2023/05/08 07:22:47;;;;;;;3.75;2.70;;;;;;;13.92;nan;102138.31;5037208;28;20063;-84
2023/05/08 07:25:14;;;;;;;6.55;3.22;;;;;;;13.60;nan;102127.13;5048590;28;20036;-82
2023/05/08 07:27:41;;;;;;;3.22;2.47;;;;;;;13.87;nan;102142.78;5033914;28;20041;-86
2023/05/08 07:30:09;;;;;;;3.97;3.10;;;;;;;13.86;nan;102126.88;5019600;28;20041;-86
2023/05/08 07:32:37;;;;;;;3.00;2.45;;;;;;;12.83;nan;102137.44;5028697;28;20045;-84
2023/05/08 07:35:07;;;;;;;4.53;2.72;;;;;;;13.29;nan;102140.69;5050282;28;20490;-84
2023/05/08 07:37:36;;;;;;;4.03;2.38;;;;;;;13.05;nan;102139.06;5046663;28;20499;-83
2023/05/08 07:40:03;;;;;;;4.75;2.88;;;;;;;13.50;nan;102132.53;5011627;28;20418;-83
2023/05/08 07:42:30;;;;;;;4.30;2.88;;;;;;;13.27;nan;102129.19;5045887;28;20039;-85
2023/05/08 07:44:57;;;;;;;5.90;2.63;;;;;;;13.52;nan;102130.75;5027370;28;20088;-84
2023/05/08 07:47:24;;;;;;;5.28;2.70;;;;;;;13.11;nan;102128.38;5040485;28;20042;-84
2023/05/08 07:49:52;;;;;;;3.95;2.80;;;;;;;13.38;nan;102135.31;5031074;28;20053;-82
2023/05/08 07:52:19;;;;;;;3.58;2.70;;;;;;;13.83;nan;102134.88;5014660;28;20041;-85
2023/05/08 07:54:46;;;;;;;4.05;2.47;;;;;;;13.97;nan;102132.97;5038138;28;20620;-86
2023/05/08 07:57:13;;;;;;;4.28;3.08;;;;;;;13.85;nan;102133.97;5047214;28;20049;-85
2023/05/08 07:59:40;;;;;;;3.33;2.85;;;;;;;14.18;nan;102132.72;5006331;28;20049;-86
2023/05/08 08:02:06;;;;;;;4.78;2.97;;;;;;;14.15;nan;102139.84;5025762;28;20049;-87
2023/05/08 08:04:33;;;;;;;3.65;2.50;;;;;;;14.02;nan;102136.44;5021365;28;20128;-85
2023/05/08 08:07:01;;;;;;;5.35;3.05;;;;;;;14.14;nan;102143.41;5031679;28;20086;-84
2023/05/08 08:09:28;;;;;;;4.53;3.20;;;;;;;14.12;nan;102131.88;5034902;28;20456;-86
2023/05/08 08:11:55;;;;;;;5.43;3.20;;;;;;;13.95;nan;102134.75;5054972;28;20049;-85
2023/05/08 08:14:22;;;;;;;3.40;2.85;;;;;;;14.24;nan;102131.75;5043585;28;20051;-89
2023/05/08 08:16:49;;;;;;;3.70;2.92;;;;;;;14.29;nan;102140.53;5017837;28;20041;-84
2023/05/08 08:19:16;;;;;;;3.33;2.60;;;;;;;14.46;nan;102130.63;5009762;28;20045;-83
2023/05/08 08:21:43;;;;;;;4.32;2.65;;;;;;;14.78;nan;102126.63;5027138;28;20101;-85
2023/05/08 08:24:11;;;;;;;4.07;2.83;;;;;;;14.56;nan;102134.03;5047205;28;20127;-85
2023/05/08 08:26:38;;;;;;;4.72;2.72;;;;;;;14.36;nan;102136.91;5056067;28;20546;-85
2023/05/08 08:29:05;;;;;;;3.40;2.60;;;;;;;14.63;nan;102119.78;5032115;28;20097;-85
2023/05/08 08:31:32;;;;;;;4.07;2.97;;;;;;;14.26;nan;102130.84;5021150;28;20091;-85
2023/05/08 08:33:59;;;;;;;4.20;2.72;;;;;;;14.50;nan;102123.47;5050696;28;20041;-85
2023/05/08 08:36:26;;;;;;;4.90;2.85;;;;;;;14.29;nan;102119.28;5026789;28;20032;-86
2023/05/08 08:38:53;;;;;;;4.68;2.97;;;;;;;15.01;nan;102127.16;5033508;28;20074;-84
2023/05/08 08:41:22;;;;;;;4.53;3.20;;;;;;;15.20;nan;102133.94;5036372;28;20036;-84
2023/05/08 08:43:49;;;;;;;5.78;2.85;;;;;;;15.43;nan;102114.06;5021251;28;20040;-84
2023/05/08 08:46:19;;;;;;;5.65;3.05;;;;;;;15.49;nan;102108.63;5016799;28;20040;-84
2023/05/08 08:48:46;;;;;;;6.55;2.88;;;;;;;15.79;nan;102111.66;5020853;28;20045;-83
2023/05/08 08:51:21;;;;;;;3.50;2.60;;;;;;;15.99;nan;102115.72;5017938;28;20041;-84
2023/05/08 08:53:51;;;;;;;3.83;2.97;;;;;;;16.11;nan;102113.69;5020862;28;20049;-86
2023/05/08 08:56:21;;;;;;;3.83;2.42;;;;;;;16.32;nan;102102.59;5014882;28;20075;-87
2023/05/08 08:58:56;;;;;;;5.82;3.10;;;;;;;15.86;nan;102097.31;5002887;28;20045;-83
2023/05/08 09:01:23;;;;;;;4.30;2.88;;;;;;;16.23;nan;102117.00;5033541;28;20044;-87
2023/05/08 09:03:50;;;;;;;3.55;2.60;;;;;;;16.22;nan;102117.00;5015310;28;20042;-84
2023/05/08 09:06:18;;;;;;;4.65;3.08;;;;;;;15.76;nan;102112.59;5029677;28;20031;-84
2023/05/08 09:08:46;;;;;;;4.35;2.72;;;;;;;16.09;nan;102112.88;5015009;28;20038;-84
2023/05/08 09:11:13;;;;;;;5.03;2.45;;;;;;;15.95;nan;102111.34;5015370;28;20034;-85
2023/05/08 09:13:40;;;;;;;5.07;3.13;;;;;;;15.59;nan;102104.88;5040054;28;20034;-84
2023/05/08 09:16:09;;;;;;;6.47;3.00;;;;;;;15.21;nan;102111.75;5031157;28;20044;-87
2023/05/08 09:18:36;;;;;;;3.33;2.50;;;;;;;15.35;nan;102103.53;5030423;28;20040;-82
2023/05/08 09:21:05;;;;;;;5.85;3.50;;;;;;;15.44;nan;102119.34;5050735;28;20548;-83
2023/05/08 09:23:34;;;;;;;3.92;2.90;;;;;;;16.08;nan;102109.31;5031127;28;20033;-84
2023/05/08 09:26:02;;;;;;;3.60;2.75;;;;;;;15.73;nan;102120.66;5024315;28;20033;-82
2023/05/08 09:28:29;;;;;;;6.28;2.95;;;;;;;16.03;nan;102114.72;5034826;28;20045;-81
2023/05/08 09:30:57;;;;;;;3.80;2.80;;;;;;;16.27;nan;102108.03;5050608;28;20056;-81
2023/05/08 09:33:28;;;;;;;4.22;2.80;;;;;;;16.46;nan;102107.63;5028380;28;20051;-80
2023/05/08 09:35:55;;;;;;;3.45;2.35;;;;;;;16.96;nan;102109.16;5012785;28;20043;-82
2023/05/08 09:38:39;;;;;;;3.70;3.00;;;;;;;16.01;nan;102121.88;5018385;28;20033;-85
2023/05/08 09:41:13;;;;;;;3.90;3.50;;;;;;;16.14;nan;102113.63;5016053;28;20052;-84
2023/05/08 09:43:41;;;;;;;26.67;19.77;;;;;;;16.44;nan;102112.13;5006731;28;20034;-83
2023/05/08 09:46:23;;;;;;;3.55;2.80;;;;;;;16.21;nan;102116.13;5014140;28;20025;-82
2023/05/08 09:48:58;;;;;;;5.13;3.20;;;;;;;16.50;nan;102099.53;5023001;28;20120;-85
2023/05/08 09:51:27;;;;;;;4.43;2.72;;;;;;;15.68;nan;102104.75;4980914;28;20047;-82
2023/05/08 09:53:55;;;;;;;5.65;5.05;;;;;;;15.90;nan;102091.03;5020880;28;20045;-85
2023/05/08 09:56:42;;;;;;;10.20;9.40;;;;;;;16.52;nan;102104.81;4990765;28;20033;-83
2023/05/08 09:59:26;;;;;;;5.30;2.70;;;;;;;16.82;nan;102084.63;5021056;28;20104;-83
2023/05/08 10:01:54;;;;;;;4.40;2.63;;;;;;;16.95;nan;102085.19;5014867;28;20043;-83
2023/05/08 10:04:32;;;;;;;4.43;2.92;;;;;;;16.97;nan;102070.88;5013907;28;20033;-83
2023/05/08 10:06:59;;;;;;;4.28;3.50;;;;;;;16.80;nan;102078.41;5015553;28;20041;-85
2023/05/08 10:09:26;;;;;;;3.65;3.35;;;;;;;16.79;nan;102087.34;5009559;28;20544;-83
2023/05/08 10:12:02;;;;;;;4.07;2.50;;;;;;;16.86;nan;102087.16;5006619;28;20049;-83
2023/05/08 10:14:29;;;;;;;3.83;2.30;;;;;;;16.77;nan;102078.50;5030972;28;20033;-85
2023/05/08 10:16:57;;;;;;;4.07;2.78;;;;;;;17.09;nan;102077.72;4990443;28;20037;-85
2023/05/08 10:19:27;;;;;;;4.63;3.20;;;;;;;16.88;nan;102081.78;5005225;28;20041;-86
2023/05/08 10:21:55;;;;;;;2.72;2.25;;;;;;;17.19;nan;102081.03;5014141;28;20037;-85
2023/05/08 10:24:25;;;;;;;2.88;2.10;;;;;;;17.44;nan;102079.47;4999573;28;20041;-85
2023/05/08 10:27:00;;;;;;;3.67;2.40;;;;;;;17.15;nan;102082.88;5007664;28;20041;-83
2023/05/08 10:29:51;;;;;;;3.72;2.50;;;;;;;17.47;nan;102071.38;5010468;28;20052;-85
2023/05/08 10:32:19;;;;;;;3.55;2.35;;;;;;;17.30;nan;102086.97;5031881;28;20543;-85
2023/05/08 10:34:57;;;;;;;3.03;2.33;;;;;;;17.09;nan;102069.72;5009828;28;20410;-83
2023/05/08 10:37:24;;;;;;;2.40;2.10;;;;;;;17.74;nan;102067.13;5018828;28;20049;-85
2023/05/08 10:39:52;;;;;;;3.20;2.20;;;;;;;17.86;nan;102066.78;5027101;28;20037;-85
2023/05/08 10:42:20;;;;;;;2.33;1.83;;;;;;;17.33;nan;102063.75;5030092;28;20041;-87
2023/05/08 10:44:48;;;;;;;3.35;2.40;;;;;;;17.94;nan;102067.44;5020592;28;20049;-87
2023/05/08 10:47:56;;;;;;;4.88;2.67;;;;;;;17.92;nan;102071.94;5022578;28;20052;-86
2023/05/08 10:50:43;;;;;;;3.05;2.28;;;;;;;18.07;nan;102057.22;5024759;28;20047;-84
2023/05/08 10:53:31;;;;;;;2.85;2.20;;;;;;;17.69;nan;102050.28;5031532;28;20051;-84
2023/05/08 10:56:00;;;;;;;4.63;2.42;;;;;;;17.78;nan;102047.41;5036998;28;20044;-84
2023/05/08 10:58:29;;;;;;;3.20;2.22;;;;;;;17.76;nan;102051.91;5022426;28;20041;-84
2023/05/08 11:00:58;;;;;;;4.28;2.38;;;;;;;17.85;nan;102061.47;5030540;28;20047;-84
2023/05/08 11:03:26;;;;;;;9.45;3.65;;;;;;;18.19;nan;102039.97;5044820;28;20046;-86
2023/05/08 11:06:01;;;;;;;4.70;2.53;;;;;;;17.93;nan;102028.25;5025585;28;20037;-87
2023/05/08 11:08:31;;;;;;;3.15;2.08;;;;;;;18.56;nan;102040.56;5035910;28;20089;-85
2023/05/08 11:10:58;;;;;;;3.03;2.15;;;;;;;18.24;nan;102041.59;5043428;28;20044;-88
2023/05/08 11:13:30;;;;;;;3.58;2.20;;;;;;;18.06;nan;102026.06;5045407;28;20112;-86
2023/05/08 11:15:57;;;;;;;2.88;2.10;;;;;;;17.92;nan;102026.50;5031954;28;20048;-84
2023/05/08 11:18:24;;;;;;;3.60;2.40;;;;;;;17.83;nan;102031.25;5029691;28;20085;-87
2023/05/08 11:21:05;;;;;;;4.32;2.90;;;;;;;17.68;nan;102016.47;5030757;28;20101;-85
2023/05/08 11:23:33;;;;;;;3.47;1.98;;;;;;;17.79;nan;102033.09;5045561;28;20120;-85
2023/05/08 11:26:10;;;;;;;2.38;2.00;;;;;;;18.04;nan;102017.22;5050528;28;20516;-85
2023/05/08 11:28:53;;;;;;;2.97;2.13;;;;;;;18.10;nan;102019.72;5040643;28;20041;-85
2023/05/08 11:31:20;;;;;;;3.28;2.17;;;;;;;17.93;nan;102024.69;5047055;28;20106;-84
2023/05/08 11:33:47;;;;;;;3.45;2.15;;;;;;;18.18;nan;102019.50;5006979;28;20061;-83
2023/05/08 11:36:16;;;;;;;2.83;2.45;;;;;;;17.91;nan;102019.41;5015460;28;20037;-84
2023/05/08 11:39:06;;;;;;;2.83;2.33;;;;;;;18.40;nan;102019.69;5042579;28;20049;-84
2023/05/08 11:41:33;;;;;;;4.60;2.25;;;;;;;18.76;nan;102028.41;5045283;28;20517;-86
2023/05/08 11:44:03;;;;;;;3.60;2.33;;;;;;;18.92;nan;102013.56;5033942;28;20048;-84
2023/05/08 11:46:35;;;;;;;2.63;2.40;;;;;;;18.94;nan;102027.78;5044718;28;20045;-84
2023/05/08 11:49:02;;;;;;;6.10;2.17;;;;;;;18.69;nan;102016.13;5027088;28;20041;-84
2023/05/08 11:51:32;;;;;;;4.80;2.60;;;;;;;18.17;nan;102015.94;5045223;28;20037;-85
2023/05/08 11:53:59;;;;;;;4.00;2.00;;;;;;;18.72;nan;102002.63;5031614;28;20041;-86
2023/05/08 11:56:26;;;;;;;3.47;2.20;;;;;;;19.08;nan;102013.91;5042971;28;20039;-84
2023/05/08 11:59:04;;;;;;;2.25;1.95;;;;;;;19.06;nan;102011.28;5031563;28;20515;-87
2023/05/08 12:01:31;;;;;;;2.78;1.80;;;;;;;19.43;nan;102001.97;5030875;28;20037;-86